sensor_id;sensor_type;location;lat;lon;timestamp;temperature;humidity
36450;DHT22;22475;51.390;7.180;2023-06-14T00:00:45;20.70;80.00
36450;DHT22;22475;51.390;7.180;2023-06-14T00:03:14;20.70;79.80
36450;DHT22;22475;51.390;7.180;2023-06-14T00:05:43;20.70;79.80
36450;DHT22;22475;51.390;7.180;2023-06-14T00:08:14;20.70;79.80
36450;DHT22;22475;51.390;7.180;2023-06-14T00:10:41;20.70;79.80
36450;DHT22;22475;51.390;7.180;2023-06-14T00:13:08;20.70;79.80
36450;DHT22;22475;51.390;7.180;2023-06-14T00:15:35;20.70;80.00
36450;DHT22;22475;51.390;7.180;2023-06-14T00:18:02;20.70;80.00
36450;DHT22;22475;51.390;7.180;2023-06-14T00:20:29;20.70;80.70
36450;DHT22;22475;51.390;7.180;2023-06-14T00:22:58;20.70;79.80
36450;DHT22;22475;51.390;7.180;2023-06-14T00:25:27;20.70;79.70
36450;DHT22;22475;51.390;7.180;2023-06-14T00:27:54;20.70;79.70
36450;DHT22;22475;51.390;7.180;2023-06-14T00:30:21;20.70;79.60
36450;DHT22;22475;51.390;7.180;2023-06-14T00:32:48;20.70;79.60
36450;DHT22;22475;51.390;7.180;2023-06-14T00:35:15;20.70;79.60
36450;DHT22;22475;51.390;7.180;2023-06-14T00:37:42;20.70;79.50
36450;DHT22;22475;51.390;7.180;2023-06-14T00:40:09;20.70;79.50
36450;DHT22;22475;51.390;7.180;2023-06-14T00:42:37;20.70;79.40
36450;DHT22;22475;51.390;7.180;2023-06-14T00:45:05;20.70;79.40
36450;DHT22;22475;51.390;7.180;2023-06-14T00:47:31;20.70;79.30
36450;DHT22;22475;51.390;7.180;2023-06-14T00:49:59;20.70;79.30
36450;DHT22;22475;51.390;7.180;2023-06-14T00:52:26;20.70;79.40
36450;DHT22;22475;51.390;7.180;2023-06-14T00:54:55;20.70;79.30
36450;DHT22;22475;51.390;7.180;2023-06-14T00:57:21;20.70;79.30
36450;DHT22;22475;51.390;7.180;2023-06-14T00:59:50;20.60;79.20
36450;DHT22;22475;51.390;7.180;2023-06-14T01:02:17;20.60;79.20
36450;DHT22;22475;51.390;7.180;2023-06-14T01:04:46;20.60;79.20
36450;DHT22;22475;51.390;7.180;2023-06-14T01:07:21;20.60;79.30
36450;DHT22;22475;51.390;7.180;2023-06-14T01:09:58;20.70;79.40
36450;DHT22;22475;51.390;7.180;2023-06-14T01:12:33;20.60;79.70
36450;DHT22;22475;51.390;7.180;2023-06-14T01:15:04;20.60;79.30
36450;DHT22;22475;51.390;7.180;2023-06-14T01:17:32;20.60;79.30
36450;DHT22;22475;51.390;7.180;2023-06-14T01:20:01;20.60;79.40
36450;DHT22;22475;51.390;7.180;2023-06-14T01:22:28;20.60;79.30
36450;DHT22;22475;51.390;7.180;2023-06-14T01:24:57;20.70;79.40
36450;DHT22;22475;51.390;7.180;2023-06-14T01:27:24;20.60;79.30
36450;DHT22;22475;51.390;7.180;2023-06-14T01:29:54;20.60;79.30
36450;DHT22;22475;51.390;7.180;2023-06-14T01:32:23;20.60;79.20
36450;DHT22;22475;51.390;7.180;2023-06-14T01:34:51;20.60;79.20
36450;DHT22;22475;51.390;7.180;2023-06-14T01:37:18;20.60;79.20
36450;DHT22;22475;51.390;7.180;2023-06-14T01:39:47;20.60;79.20
36450;DHT22;22475;51.390;7.180;2023-06-14T01:42:15;20.60;79.30
36450;DHT22;22475;51.390;7.180;2023-06-14T01:44:43;20.60;79.10
36450;DHT22;22475;51.390;7.180;2023-06-14T01:47:11;20.60;79.10
36450;DHT22;22475;51.390;7.180;2023-06-14T01:49:38;20.60;79.10
36450;DHT22;22475;51.390;7.180;2023-06-14T01:52:06;20.60;79.10
36450;DHT22;22475;51.390;7.180;2023-06-14T01:54:35;20.60;79.20
36450;DHT22;22475;51.390;7.180;2023-06-14T01:57:03;20.60;79.30
36450;DHT22;22475;51.390;7.180;2023-06-14T01:59:33;20.60;79.20
36450;DHT22;22475;51.390;7.180;2023-06-14T02:02:01;20.60;79.30
36450;DHT22;22475;51.390;7.180;2023-06-14T02:04:28;20.60;79.20
36450;DHT22;22475;51.390;7.180;2023-06-14T02:06:54;20.60;79.10
36450;DHT22;22475;51.390;7.180;2023-06-14T02:09:21;20.60;79.00
36450;DHT22;22475;51.390;7.180;2023-06-14T02:11:49;20.60;78.90
36450;DHT22;22475;51.390;7.180;2023-06-14T02:14:16;20.60;78.90
36450;DHT22;22475;51.390;7.180;2023-06-14T02:16:44;20.60;78.90
36450;DHT22;22475;51.390;7.180;2023-06-14T02:19:14;20.60;78.90
36450;DHT22;22475;51.390;7.180;2023-06-14T02:21:41;20.60;78.80
36450;DHT22;22475;51.390;7.180;2023-06-14T02:24:08;20.50;78.60
36450;DHT22;22475;51.390;7.180;2023-06-14T02:26:35;20.60;78.50
36450;DHT22;22475;51.390;7.180;2023-06-14T02:29:03;20.50;78.50
36450;DHT22;22475;51.390;7.180;2023-06-14T02:31:30;20.50;78.50
36450;DHT22;22475;51.390;7.180;2023-06-14T02:33:58;20.50;78.50
36450;DHT22;22475;51.390;7.180;2023-06-14T02:36:25;20.50;78.40
36450;DHT22;22475;51.390;7.180;2023-06-14T02:38:52;20.50;78.30
36450;DHT22;22475;51.390;7.180;2023-06-14T02:41:19;20.50;78.20
36450;DHT22;22475;51.390;7.180;2023-06-14T02:43:46;20.50;78.10
36450;DHT22;22475;51.390;7.180;2023-06-14T02:46:13;20.50;78.10
36450;DHT22;22475;51.390;7.180;2023-06-14T02:48:40;20.50;78.10
36450;DHT22;22475;51.390;7.180;2023-06-14T02:51:08;20.50;78.20
36450;DHT22;22475;51.390;7.180;2023-06-14T02:53:35;20.50;78.10
36450;DHT22;22475;51.390;7.180;2023-06-14T02:56:02;20.50;77.90
36450;DHT22;22475;51.390;7.180;2023-06-14T02:58:29;20.50;78.00
36450;DHT22;22475;51.390;7.180;2023-06-14T03:00:56;20.50;77.80
36450;DHT22;22475;51.390;7.180;2023-06-14T03:03:23;20.50;77.60
36450;DHT22;22475;51.390;7.180;2023-06-14T03:05:50;20.50;77.80
36450;DHT22;22475;51.390;7.180;2023-06-14T03:08:18;20.50;77.90
36450;DHT22;22475;51.390;7.180;2023-06-14T03:10:46;20.50;77.90
36450;DHT22;22475;51.390;7.180;2023-06-14T03:13:13;20.50;77.90
36450;DHT22;22475;51.390;7.180;2023-06-14T03:15:41;20.50;77.70
36450;DHT22;22475;51.390;7.180;2023-06-14T03:18:09;20.50;77.50
36450;DHT22;22475;51.390;7.180;2023-06-14T03:20:35;20.50;77.50
36450;DHT22;22475;51.390;7.180;2023-06-14T03:23:03;20.40;77.60
36450;DHT22;22475;51.390;7.180;2023-06-14T03:25:32;20.50;77.50
36450;DHT22;22475;51.390;7.180;2023-06-14T03:28:01;20.50;78.20
36450;DHT22;22475;51.390;7.180;2023-06-14T03:30:27;20.40;77.40
36450;DHT22;22475;51.390;7.180;2023-06-14T03:32:54;20.40;77.20
36450;DHT22;22475;51.390;7.180;2023-06-14T03:35:21;20.40;77.20
36450;DHT22;22475;51.390;7.180;2023-06-14T03:37:48;20.40;77.40
36450;DHT22;22475;51.390;7.180;2023-06-14T03:40:18;20.40;77.70
36450;DHT22;22475;51.390;7.180;2023-06-14T03:42:46;20.40;77.70
36450;DHT22;22475;51.390;7.180;2023-06-14T03:45:13;20.40;77.50
36450;DHT22;22475;51.390;7.180;2023-06-14T03:47:40;20.40;77.40
36450;DHT22;22475;51.390;7.180;2023-06-14T03:50:07;20.40;77.50
36450;DHT22;22475;51.390;7.180;2023-06-14T03:52:34;20.40;77.50
36450;DHT22;22475;51.390;7.180;2023-06-14T03:55:02;20.40;77.60
36450;DHT22;22475;51.390;7.180;2023-06-14T03:57:30;20.40;77.70
36450;DHT22;22475;51.390;7.180;2023-06-14T03:59:58;20.40;77.70
36450;DHT22;22475;51.390;7.180;2023-06-14T04:02:24;20.40;77.80
36450;DHT22;22475;51.390;7.180;2023-06-14T04:04:54;20.40;77.70
36450;DHT22;22475;51.390;7.180;2023-06-14T04:07:21;20.40;77.40
36450;DHT22;22475;51.390;7.180;2023-06-14T04:09:48;20.40;77.50
36450;DHT22;22475;51.390;7.180;2023-06-14T04:12:15;20.40;77.40
36450;DHT22;22475;51.390;7.180;2023-06-14T04:14:42;20.30;77.40
36450;DHT22;22475;51.390;7.180;2023-06-14T04:17:10;20.40;77.40
36450;DHT22;22475;51.390;7.180;2023-06-14T04:19:37;20.40;77.40
36450;DHT22;22475;51.390;7.180;2023-06-14T04:22:04;20.40;77.60
36450;DHT22;22475;51.390;7.180;2023-06-14T04:24:31;20.30;77.60
36450;DHT22;22475;51.390;7.180;2023-06-14T04:27:01;20.30;77.70
36450;DHT22;22475;51.390;7.180;2023-06-14T04:29:27;20.40;77.80
36450;DHT22;22475;51.390;7.180;2023-06-14T04:31:55;20.30;77.80
36450;DHT22;22475;51.390;7.180;2023-06-14T04:34:25;20.30;77.90
36450;DHT22;22475;51.390;7.180;2023-06-14T04:36:55;20.30;78.00
36450;DHT22;22475;51.390;7.180;2023-06-14T04:39:24;20.30;78.10
36450;DHT22;22475;51.390;7.180;2023-06-14T04:41:51;20.30;78.10
36450;DHT22;22475;51.390;7.180;2023-06-14T04:44:22;20.30;77.90
36450;DHT22;22475;51.390;7.180;2023-06-14T04:46:56;20.30;77.90
36450;DHT22;22475;51.390;7.180;2023-06-14T04:49:25;20.30;78.00
36450;DHT22;22475;51.390;7.180;2023-06-14T04:51:53;20.30;78.10
36450;DHT22;22475;51.390;7.180;2023-06-14T04:54:23;20.30;78.20
36450;DHT22;22475;51.390;7.180;2023-06-14T04:56:50;20.30;78.30
36450;DHT22;22475;51.390;7.180;2023-06-14T04:59:17;20.30;78.60
36450;DHT22;22475;51.390;7.180;2023-06-14T05:01:43;20.30;78.90
36450;DHT22;22475;51.390;7.180;2023-06-14T05:04:13;20.30;79.10
36450;DHT22;22475;51.390;7.180;2023-06-14T05:06:42;20.30;79.00
36450;DHT22;22475;51.390;7.180;2023-06-14T05:09:10;20.30;78.90
36450;DHT22;22475;51.390;7.180;2023-06-14T05:11:37;20.30;79.80
36450;DHT22;22475;51.390;7.180;2023-06-14T05:14:03;20.30;79.10
36450;DHT22;22475;51.390;7.180;2023-06-14T05:16:31;20.30;79.10
36450;DHT22;22475;51.390;7.180;2023-06-14T05:18:58;20.30;79.20
36450;DHT22;22475;51.390;7.180;2023-06-14T05:21:25;20.30;79.40
36450;DHT22;22475;51.390;7.180;2023-06-14T05:23:53;20.30;79.60
36450;DHT22;22475;51.390;7.180;2023-06-14T05:26:19;20.30;79.70
36450;DHT22;22475;51.390;7.180;2023-06-14T05:28:48;20.30;79.80
36450;DHT22;22475;51.390;7.180;2023-06-14T05:31:15;20.30;80.10
36450;DHT22;22475;51.390;7.180;2023-06-14T05:33:42;20.30;79.70
36450;DHT22;22475;51.390;7.180;2023-06-14T05:36:09;20.30;79.50
36450;DHT22;22475;51.390;7.180;2023-06-14T05:38:36;20.20;79.50
36450;DHT22;22475;51.390;7.180;2023-06-14T05:41:04;20.30;79.50
36450;DHT22;22475;51.390;7.180;2023-06-14T05:43:30;20.30;79.20
36450;DHT22;22475;51.390;7.180;2023-06-14T05:45:57;20.30;79.20
36450;DHT22;22475;51.390;7.180;2023-06-14T05:48:24;20.30;79.40
36450;DHT22;22475;51.390;7.180;2023-06-14T05:50:51;20.30;79.20
36450;DHT22;22475;51.390;7.180;2023-06-14T05:53:17;20.30;79.00
36450;DHT22;22475;51.390;7.180;2023-06-14T05:55:44;20.30;78.80
36450;DHT22;22475;51.390;7.180;2023-06-14T05:58:12;20.30;78.40
36450;DHT22;22475;51.390;7.180;2023-06-14T06:00:39;20.30;78.20
36450;DHT22;22475;51.390;7.180;2023-06-14T06:03:06;20.30;78.30
36450;DHT22;22475;51.390;7.180;2023-06-14T06:05:36;20.30;78.40
36450;DHT22;22475;51.390;7.180;2023-06-14T06:08:03;20.30;78.30
36450;DHT22;22475;51.390;7.180;2023-06-14T06:10:30;20.30;78.20
36450;DHT22;22475;51.390;7.180;2023-06-14T06:12:57;20.30;78.10
36450;DHT22;22475;51.390;7.180;2023-06-14T06:15:25;20.30;77.90
36450;DHT22;22475;51.390;7.180;2023-06-14T06:17:52;20.30;78.00
36450;DHT22;22475;51.390;7.180;2023-06-14T06:20:19;20.30;78.00
36450;DHT22;22475;51.390;7.180;2023-06-14T06:22:46;20.30;78.00
36450;DHT22;22475;51.390;7.180;2023-06-14T06:25:13;20.30;77.80
36450;DHT22;22475;51.390;7.180;2023-06-14T06:27:40;20.30;77.50
36450;DHT22;22475;51.390;7.180;2023-06-14T06:30:07;20.30;77.10
36450;DHT22;22475;51.390;7.180;2023-06-14T06:32:36;20.30;77.00
36450;DHT22;22475;51.390;7.180;2023-06-14T06:35:03;20.30;77.10
36450;DHT22;22475;51.390;7.180;2023-06-14T06:37:31;20.30;77.40
36450;DHT22;22475;51.390;7.180;2023-06-14T06:39:58;20.30;77.40
36450;DHT22;22475;51.390;7.180;2023-06-14T06:42:25;20.30;77.20
36450;DHT22;22475;51.390;7.180;2023-06-14T06:44:52;20.30;77.00
36450;DHT22;22475;51.390;7.180;2023-06-14T06:47:18;20.30;76.80
36450;DHT22;22475;51.390;7.180;2023-06-14T06:49:47;20.30;76.70
36450;DHT22;22475;51.390;7.180;2023-06-14T06:52:13;20.30;77.00
36450;DHT22;22475;51.390;7.180;2023-06-14T06:54:40;20.30;76.90
36450;DHT22;22475;51.390;7.180;2023-06-14T06:57:07;20.30;76.50
36450;DHT22;22475;51.390;7.180;2023-06-14T06:59:35;20.30;76.30
36450;DHT22;22475;51.390;7.180;2023-06-14T07:02:02;20.30;76.40
36450;DHT22;22475;51.390;7.180;2023-06-14T07:04:29;20.30;76.60
36450;DHT22;22475;51.390;7.180;2023-06-14T07:06:58;20.30;76.60
36450;DHT22;22475;51.390;7.180;2023-06-14T07:09:25;20.30;77.00
36450;DHT22;22475;51.390;7.180;2023-06-14T07:11:51;20.30;77.40
36450;DHT22;22475;51.390;7.180;2023-06-14T07:14:20;20.30;77.60
36450;DHT22;22475;51.390;7.180;2023-06-14T07:16:49;20.30;77.70
36450;DHT22;22475;51.390;7.180;2023-06-14T07:19:16;20.30;77.40
36450;DHT22;22475;51.390;7.180;2023-06-14T07:21:43;20.40;77.50
36450;DHT22;22475;51.390;7.180;2023-06-14T07:24:11;20.40;77.20
36450;DHT22;22475;51.390;7.180;2023-06-14T07:26:38;20.30;76.60
36450;DHT22;22475;51.390;7.180;2023-06-14T07:29:04;20.30;76.40
36450;DHT22;22475;51.390;7.180;2023-06-14T07:31:31;20.30;76.90
36450;DHT22;22475;51.390;7.180;2023-06-14T07:33:58;20.40;77.30
36450;DHT22;22475;51.390;7.180;2023-06-14T07:36:25;20.40;77.40
36450;DHT22;22475;51.390;7.180;2023-06-14T07:38:51;20.40;77.70
36450;DHT22;22475;51.390;7.180;2023-06-14T07:41:19;20.30;77.90
36450;DHT22;22475;51.390;7.180;2023-06-14T07:43:46;20.30;78.10
36450;DHT22;22475;51.390;7.180;2023-06-14T07:46:15;20.40;78.30
36450;DHT22;22475;51.390;7.180;2023-06-14T07:48:41;20.40;78.40
36450;DHT22;22475;51.390;7.180;2023-06-14T07:51:08;20.40;78.50
36450;DHT22;22475;51.390;7.180;2023-06-14T07:53:35;20.40;78.60
36450;DHT22;22475;51.390;7.180;2023-06-14T07:56:02;20.40;78.70
36450;DHT22;22475;51.390;7.180;2023-06-14T07:58:30;20.40;78.80
36450;DHT22;22475;51.390;7.180;2023-06-14T08:00:57;20.40;78.90
36450;DHT22;22475;51.390;7.180;2023-06-14T08:03:24;20.40;78.90
36450;DHT22;22475;51.390;7.180;2023-06-14T08:05:52;20.40;79.00
36450;DHT22;22475;51.390;7.180;2023-06-14T08:08:18;20.40;79.10
36450;DHT22;22475;51.390;7.180;2023-06-14T08:10:45;20.40;79.10
36450;DHT22;22475;51.390;7.180;2023-06-14T08:13:12;20.40;79.10
36450;DHT22;22475;51.390;7.180;2023-06-14T08:15:40;20.40;79.20
36450;DHT22;22475;51.390;7.180;2023-06-14T08:18:07;20.40;79.30
36450;DHT22;22475;51.390;7.180;2023-06-14T08:20:33;20.40;79.40
36450;DHT22;22475;51.390;7.180;2023-06-14T08:23:01;20.40;79.40
36450;DHT22;22475;51.390;7.180;2023-06-14T08:25:29;20.40;79.50
36450;DHT22;22475;51.390;7.180;2023-06-14T08:27:56;20.40;79.50
36450;DHT22;22475;51.390;7.180;2023-06-14T08:30:25;20.40;79.70
36450;DHT22;22475;51.390;7.180;2023-06-14T08:32:53;20.40;79.80
36450;DHT22;22475;51.390;7.180;2023-06-14T08:35:21;20.40;79.90
36450;DHT22;22475;51.390;7.180;2023-06-14T08:37:47;20.40;80.10
36450;DHT22;22475;51.390;7.180;2023-06-14T08:40:19;20.40;80.20
36450;DHT22;22475;51.390;7.180;2023-06-14T08:42:48;20.40;80.20
36450;DHT22;22475;51.390;7.180;2023-06-14T08:45:16;20.40;80.00
36450;DHT22;22475;51.390;7.180;2023-06-14T08:47:44;20.40;80.00
36450;DHT22;22475;51.390;7.180;2023-06-14T08:50:13;20.40;80.10
36450;DHT22;22475;51.390;7.180;2023-06-14T08:52:45;20.40;80.20
36450;DHT22;22475;51.390;7.180;2023-06-14T08:55:16;20.40;80.10
36450;DHT22;22475;51.390;7.180;2023-06-14T08:57:46;20.40;80.00
36450;DHT22;22475;51.390;7.180;2023-06-14T09:00:14;20.40;79.90
36450;DHT22;22475;51.390;7.180;2023-06-14T09:02:41;20.40;79.90
36450;DHT22;22475;51.390;7.180;2023-06-14T09:05:09;20.40;80.00
36450;DHT22;22475;51.390;7.180;2023-06-14T09:07:37;20.40;80.00
36450;DHT22;22475;51.390;7.180;2023-06-14T09:10:07;20.40;80.10
36450;DHT22;22475;51.390;7.180;2023-06-14T09:12:35;20.40;80.20
36450;DHT22;22475;51.390;7.180;2023-06-14T09:15:02;20.40;80.20
36450;DHT22;22475;51.390;7.180;2023-06-14T09:17:32;20.40;80.20
36450;DHT22;22475;51.390;7.180;2023-06-14T09:20:00;20.40;80.30
36450;DHT22;22475;51.390;7.180;2023-06-14T09:22:29;20.40;80.30
36450;DHT22;22475;51.390;7.180;2023-06-14T09:24:57;20.40;80.40
36450;DHT22;22475;51.390;7.180;2023-06-14T09:27:25;20.40;80.40
36450;DHT22;22475;51.390;7.180;2023-06-14T09:29:53;20.40;80.40
36450;DHT22;22475;51.390;7.180;2023-06-14T09:32:20;20.40;80.50
36450;DHT22;22475;51.390;7.180;2023-06-14T09:34:47;20.40;80.50
36450;DHT22;22475;51.390;7.180;2023-06-14T09:37:26;20.40;80.60
36450;DHT22;22475;51.390;7.180;2023-06-14T09:39:53;20.40;80.50
36450;DHT22;22475;51.390;7.180;2023-06-14T09:42:21;20.40;80.50
36450;DHT22;22475;51.390;7.180;2023-06-14T09:44:52;20.40;80.60
36450;DHT22;22475;51.390;7.180;2023-06-14T09:47:19;20.40;80.60
36450;DHT22;22475;51.390;7.180;2023-06-14T09:49:46;20.40;80.60
36450;DHT22;22475;51.390;7.180;2023-06-14T09:52:15;20.40;80.60
36450;DHT22;22475;51.390;7.180;2023-06-14T09:54:44;20.40;80.60
36450;DHT22;22475;51.390;7.180;2023-06-14T09:57:12;20.40;80.70
36450;DHT22;22475;51.390;7.180;2023-06-14T09:59:42;20.40;80.70
36450;DHT22;22475;51.390;7.180;2023-06-14T10:02:13;20.40;80.80
36450;DHT22;22475;51.390;7.180;2023-06-14T10:04:44;20.40;80.80
36450;DHT22;22475;51.390;7.180;2023-06-14T10:07:14;20.40;80.80
36450;DHT22;22475;51.390;7.180;2023-06-14T10:09:44;20.40;80.80
36450;DHT22;22475;51.390;7.180;2023-06-14T10:12:16;20.40;80.90
36450;DHT22;22475;51.390;7.180;2023-06-14T10:14:48;20.40;81.00
36450;DHT22;22475;51.390;7.180;2023-06-14T10:17:22;20.40;81.20
36450;DHT22;22475;51.390;7.180;2023-06-14T10:19:58;20.40;81.10
36450;DHT22;22475;51.390;7.180;2023-06-14T10:22:34;20.40;81.10
36450;DHT22;22475;51.390;7.180;2023-06-14T10:25:06;20.40;81.00
36450;DHT22;22475;51.390;7.180;2023-06-14T10:27:37;20.40;81.00
36450;DHT22;22475;51.390;7.180;2023-06-14T10:30:08;20.40;81.00
36450;DHT22;22475;51.390;7.180;2023-06-14T10:32:35;20.40;81.20
36450;DHT22;22475;51.390;7.180;2023-06-14T10:35:04;20.40;81.20
36450;DHT22;22475;51.390;7.180;2023-06-14T10:37:32;20.40;81.10
36450;DHT22;22475;51.390;7.180;2023-06-14T10:39:59;20.40;81.20
36450;DHT22;22475;51.390;7.180;2023-06-14T10:42:28;20.40;81.30
36450;DHT22;22475;51.390;7.180;2023-06-14T10:44:58;20.40;81.30
36450;DHT22;22475;51.390;7.180;2023-06-14T10:47:30;20.40;81.40
36450;DHT22;22475;51.390;7.180;2023-06-14T10:50:02;20.40;81.60
36450;DHT22;22475;51.390;7.180;2023-06-14T10:52:33;20.40;81.70
36450;DHT22;22475;51.390;7.180;2023-06-14T10:55:10;20.40;81.80
36450;DHT22;22475;51.390;7.180;2023-06-14T10:57:39;20.50;81.90
36450;DHT22;22475;51.390;7.180;2023-06-14T11:00:08;20.50;81.90
36450;DHT22;22475;51.390;7.180;2023-06-14T11:03:31;20.40;81.60
36450;DHT22;22475;51.390;7.180;2023-06-14T11:06:12;20.40;81.60
36450;DHT22;22475;51.390;7.180;2023-06-14T11:09:09;20.40;81.50
36450;DHT22;22475;51.390;7.180;2023-06-14T11:11:38;20.40;81.70
36450;DHT22;22475;51.390;7.180;2023-06-14T11:14:06;20.50;81.70
36450;DHT22;22475;51.390;7.180;2023-06-14T11:16:33;20.40;81.70
36450;DHT22;22475;51.390;7.180;2023-06-14T11:19:02;20.40;81.70
36450;DHT22;22475;51.390;7.180;2023-06-14T11:21:29;20.40;81.80
36450;DHT22;22475;51.390;7.180;2023-06-14T11:23:58;20.40;81.70
36450;DHT22;22475;51.390;7.180;2023-06-14T11:26:26;20.50;81.90
36450;DHT22;22475;51.390;7.180;2023-06-14T11:28:56;20.50;81.90
36450;DHT22;22475;51.390;7.180;2023-06-14T11:31:23;20.50;81.80
36450;DHT22;22475;51.390;7.180;2023-06-14T11:33:51;20.50;81.80
36450;DHT22;22475;51.390;7.180;2023-06-14T11:36:21;20.40;81.70
36450;DHT22;22475;51.390;7.180;2023-06-14T11:38:47;20.50;81.80
36450;DHT22;22475;51.390;7.180;2023-06-14T11:41:14;20.40;81.90
36450;DHT22;22475;51.390;7.180;2023-06-14T11:43:41;20.40;81.90
36450;DHT22;22475;51.390;7.180;2023-06-14T11:46:12;20.50;81.80
36450;DHT22;22475;51.390;7.180;2023-06-14T11:48:41;20.40;81.70
36450;DHT22;22475;51.390;7.180;2023-06-14T11:51:08;20.40;81.70
36450;DHT22;22475;51.390;7.180;2023-06-14T11:53:36;20.40;81.60
36450;DHT22;22475;51.390;7.180;2023-06-14T11:56:04;20.40;81.60
36450;DHT22;22475;51.390;7.180;2023-06-14T11:58:31;20.40;81.70
36450;DHT22;22475;51.390;7.180;2023-06-14T12:00:58;20.40;81.70
36450;DHT22;22475;51.390;7.180;2023-06-14T12:03:25;20.40;81.70
36450;DHT22;22475;51.390;7.180;2023-06-14T12:06:02;20.40;81.80
36450;DHT22;22475;51.390;7.180;2023-06-14T12:08:33;20.40;81.90
36450;DHT22;22475;51.390;7.180;2023-06-14T12:11:05;20.40;81.90
36450;DHT22;22475;51.390;7.180;2023-06-14T12:13:34;20.40;82.00
36450;DHT22;22475;51.390;7.180;2023-06-14T12:16:02;20.40;82.10
36450;DHT22;22475;51.390;7.180;2023-06-14T12:18:33;20.40;82.20
36450;DHT22;22475;51.390;7.180;2023-06-14T12:21:01;20.40;82.10
36450;DHT22;22475;51.390;7.180;2023-06-14T12:23:39;20.40;82.00
36450;DHT22;22475;51.390;7.180;2023-06-14T12:26:07;20.40;82.10
36450;DHT22;22475;51.390;7.180;2023-06-14T12:28:34;20.40;82.20
36450;DHT22;22475;51.390;7.180;2023-06-14T12:31:00;20.50;82.20
36450;DHT22;22475;51.390;7.180;2023-06-14T12:33:27;20.40;82.10
36450;DHT22;22475;51.390;7.180;2023-06-14T12:35:55;20.40;82.20
36450;DHT22;22475;51.390;7.180;2023-06-14T12:38:22;20.40;82.30
36450;DHT22;22475;51.390;7.180;2023-06-14T12:40:49;20.50;82.30
36450;DHT22;22475;51.390;7.180;2023-06-14T12:43:17;20.40;82.40
36450;DHT22;22475;51.390;7.180;2023-06-14T12:45:44;20.50;82.60
36450;DHT22;22475;51.390;7.180;2023-06-14T12:48:11;20.50;82.70
36450;DHT22;22475;51.390;7.180;2023-06-14T12:50:38;20.50;82.70
36450;DHT22;22475;51.390;7.180;2023-06-14T12:53:04;20.50;82.70
36450;DHT22;22475;51.390;7.180;2023-06-14T12:55:32;20.50;82.70
36450;DHT22;22475;51.390;7.180;2023-06-14T12:57:59;20.50;82.50
36450;DHT22;22475;51.390;7.180;2023-06-14T13:00:27;20.50;82.40
36450;DHT22;22475;51.390;7.180;2023-06-14T13:02:55;20.50;82.40
36450;DHT22;22475;51.390;7.180;2023-06-14T13:05:22;20.50;82.30
36450;DHT22;22475;51.390;7.180;2023-06-14T13:07:49;20.50;82.40
36450;DHT22;22475;51.390;7.180;2023-06-14T13:10:16;20.50;83.30
36450;DHT22;22475;51.390;7.180;2023-06-14T13:12:43;20.50;82.50
36450;DHT22;22475;51.390;7.180;2023-06-14T13:15:10;20.50;82.40
36450;DHT22;22475;51.390;7.180;2023-06-14T13:17:38;20.50;82.50
36450;DHT22;22475;51.390;7.180;2023-06-14T13:20:06;20.50;82.60
36450;DHT22;22475;51.390;7.180;2023-06-14T13:22:33;20.50;82.70
36450;DHT22;22475;51.390;7.180;2023-06-14T13:25:00;20.50;82.80
36450;DHT22;22475;51.390;7.180;2023-06-14T13:27:27;20.50;82.90
36450;DHT22;22475;51.390;7.180;2023-06-14T13:29:54;20.50;83.00
36450;DHT22;22475;51.390;7.180;2023-06-14T13:32:21;20.50;83.00
36450;DHT22;22475;51.390;7.180;2023-06-14T13:34:49;20.50;82.80
36450;DHT22;22475;51.390;7.180;2023-06-14T13:37:16;20.50;82.80
36450;DHT22;22475;51.390;7.180;2023-06-14T13:39:42;20.50;82.90
36450;DHT22;22475;51.390;7.180;2023-06-14T13:42:09;20.50;83.00
36450;DHT22;22475;51.390;7.180;2023-06-14T13:44:37;20.50;83.00
36450;DHT22;22475;51.390;7.180;2023-06-14T13:47:04;20.50;83.00
36450;DHT22;22475;51.390;7.180;2023-06-14T13:49:31;20.50;82.90
36450;DHT22;22475;51.390;7.180;2023-06-14T13:51:59;20.50;82.90
36450;DHT22;22475;51.390;7.180;2023-06-14T13:54:26;20.50;83.10
36450;DHT22;22475;51.390;7.180;2023-06-14T13:56:53;20.50;83.20
36450;DHT22;22475;51.390;7.180;2023-06-14T13:59:20;20.50;83.20
36450;DHT22;22475;51.390;7.180;2023-06-14T14:01:47;20.50;83.20
36450;DHT22;22475;51.390;7.180;2023-06-14T14:04:14;20.50;83.20
36450;DHT22;22475;51.390;7.180;2023-06-14T14:06:41;20.60;83.20
36450;DHT22;22475;51.390;7.180;2023-06-14T14:09:09;20.50;82.90
36450;DHT22;22475;51.390;7.180;2023-06-14T14:11:36;20.50;82.90
36450;DHT22;22475;51.390;7.180;2023-06-14T14:14:05;20.50;82.80
36450;DHT22;22475;51.390;7.180;2023-06-14T14:16:31;20.50;82.80
36450;DHT22;22475;51.390;7.180;2023-06-14T14:18:58;20.50;82.70
36450;DHT22;22475;51.390;7.180;2023-06-14T14:21:25;20.60;82.90
36450;DHT22;22475;51.390;7.180;2023-06-14T14:23:52;20.50;82.90
36450;DHT22;22475;51.390;7.180;2023-06-14T14:26:20;20.50;83.00
36450;DHT22;22475;51.390;7.180;2023-06-14T14:28:47;20.50;83.00
36450;DHT22;22475;51.390;7.180;2023-06-14T14:31:13;20.50;83.10
36450;DHT22;22475;51.390;7.180;2023-06-14T14:33:40;20.50;83.10
36450;DHT22;22475;51.390;7.180;2023-06-14T14:36:07;20.60;83.10
36450;DHT22;22475;51.390;7.180;2023-06-14T14:38:34;20.60;83.20
36450;DHT22;22475;51.390;7.180;2023-06-14T14:41:01;20.60;83.20
36450;DHT22;22475;51.390;7.180;2023-06-14T14:43:29;20.60;83.30
36450;DHT22;22475;51.390;7.180;2023-06-14T14:45:57;20.60;83.30
36450;DHT22;22475;51.390;7.180;2023-06-14T14:48:24;20.60;83.20
36450;DHT22;22475;51.390;7.180;2023-06-14T14:50:50;20.60;83.30
36450;DHT22;22475;51.390;7.180;2023-06-14T14:53:17;20.60;83.40
36450;DHT22;22475;51.390;7.180;2023-06-14T14:55:44;20.60;83.40
36450;DHT22;22475;51.390;7.180;2023-06-14T14:58:12;20.60;83.50
36450;DHT22;22475;51.390;7.180;2023-06-14T15:00:43;20.60;83.40
36450;DHT22;22475;51.390;7.180;2023-06-14T15:03:10;20.60;83.50
36450;DHT22;22475;51.390;7.180;2023-06-14T15:05:37;20.60;83.40
36450;DHT22;22475;51.390;7.180;2023-06-14T15:08:04;20.60;83.20
36450;DHT22;22475;51.390;7.180;2023-06-14T15:10:36;20.60;83.10
36450;DHT22;22475;51.390;7.180;2023-06-14T15:13:03;20.60;83.10
36450;DHT22;22475;51.390;7.180;2023-06-14T15:15:29;20.60;83.10
36450;DHT22;22475;51.390;7.180;2023-06-14T15:17:58;20.60;83.20
36450;DHT22;22475;51.390;7.180;2023-06-14T15:20:25;20.60;83.30
36450;DHT22;22475;51.390;7.180;2023-06-14T15:22:52;20.60;83.20
36450;DHT22;22475;51.390;7.180;2023-06-14T15:25:21;20.60;83.30
36450;DHT22;22475;51.390;7.180;2023-06-14T15:27:48;20.60;83.30
36450;DHT22;22475;51.390;7.180;2023-06-14T15:30:14;20.60;83.30
36450;DHT22;22475;51.390;7.180;2023-06-14T15:32:41;20.60;83.20
36450;DHT22;22475;51.390;7.180;2023-06-14T15:35:09;20.60;83.10